createdAt,value
2022-09-07T00:01:06.026Z,1.99
2022-09-07T00:03:33.459Z,1.92
2022-09-07T00:06:06.410Z,1.85
2022-09-07T00:08:33.876Z,1.70
2022-09-07T00:11:02.857Z,1.60
2022-09-07T00:13:33.707Z,1.57
2022-09-07T00:16:07.567Z,1.76
2022-09-07T00:18:35.354Z,1.73
2022-09-07T00:21:05.786Z,1.73
2022-09-07T00:23:35.636Z,1.66
2022-09-07T00:26:05.374Z,1.40
2022-09-07T00:28:33.495Z,1.56
2022-09-07T00:31:01.884Z,1.47
2022-09-07T00:33:35.206Z,1.52
2022-09-07T00:36:03.634Z,1.54
2022-09-07T00:38:30.948Z,1.36
2022-09-07T00:40:58.523Z,1.36
2022-09-07T00:43:34.582Z,1.18
2022-09-07T00:46:04.069Z,1.44
2022-09-07T00:48:38.833Z,1.20
2022-09-07T00:51:11.927Z,1.13
2022-09-07T00:53:43.266Z,1.41
2022-09-07T00:56:12.974Z,1.18
2022-09-07T00:58:43.021Z,1.23
2022-09-07T01:01:10.249Z,1.10
2022-09-07T01:03:41.363Z,1.03
2022-09-07T01:06:16.314Z,1.20
2022-09-07T01:08:45.998Z,1.28
2022-09-07T01:11:13.353Z,1.56
2022-09-07T01:13:47.900Z,1.75
2022-09-07T01:16:24.953Z,1.70
2022-09-07T01:19:16.559Z,1.76
2022-09-07T01:21:54.592Z,1.66
2022-09-07T01:24:42.544Z,1.76
2022-09-07T01:27:47.659Z,1.61
2022-09-07T01:30:16.851Z,1.64
2022-09-07T01:33:01.097Z,1.73
2022-09-07T01:35:35.919Z,1.63
2022-09-07T01:38:12.814Z,1.45
2022-09-07T01:40:49.171Z,1.68
2022-09-07T01:43:33.768Z,1.53
2022-09-07T01:46:05.762Z,1.73
2022-09-07T01:48:36.719Z,1.62
2022-09-07T01:51:04.366Z,1.40
2022-09-07T01:53:37.078Z,1.39
2022-09-07T01:56:08.255Z,1.14
2022-09-07T01:58:43.427Z,0.95
2022-09-07T02:01:13.791Z,1.11
2022-09-07T02:03:46.164Z,1.02
2022-09-07T02:06:22.670Z,1.04
2022-09-07T02:08:57.139Z,0.90
2022-09-07T02:11:33.028Z,0.85
2022-09-07T02:14:07.724Z,1.15
2022-09-07T02:16:41.278Z,1.07
2022-09-07T02:19:14.766Z,1.14
2022-09-07T02:21:48.399Z,1.46
2022-09-07T02:24:21.782Z,1.64
2022-09-07T02:26:52.022Z,1.29
2022-09-07T02:29:20.930Z,1.15
2022-09-07T02:31:48.335Z,1.09
2022-09-07T02:34:15.965Z,1.07
2022-09-07T02:36:47.846Z,1.07
2022-09-07T02:39:17.327Z,1.03
2022-09-07T02:41:45.571Z,0.97
2022-09-07T02:44:15.687Z,1.05
2022-09-07T02:46:58.637Z,1.11
2022-09-07T02:49:44.088Z,1.09
2022-09-07T02:52:22.572Z,1.09
2022-09-07T02:55:05.766Z,1.06
2022-09-07T02:57:44.747Z,1.10
2022-09-07T03:00:16.270Z,1.15
2022-09-07T03:02:56.813Z,1.21
2022-09-07T03:05:30.480Z,1.43
2022-09-07T03:08:05.123Z,1.18
2022-09-07T03:10:33.841Z,1.16
2022-09-07T03:13:00.974Z,1.12
2022-09-07T03:15:33.614Z,1.10
2022-09-07T03:18:03.322Z,0.95
2022-09-07T03:20:31.854Z,1.02
2022-09-07T03:23:00.515Z,1.30
2022-09-07T03:25:27.618Z,1.28
2022-09-07T03:27:55.718Z,1.15
2022-09-07T03:30:23.514Z,1.29
2022-09-07T03:32:53.050Z,1.54
2022-09-07T03:35:21.843Z,1.35
2022-09-07T03:37:50.473Z,1.18
2022-09-07T03:40:19.919Z,1.36
2022-09-07T03:42:49.334Z,1.17
2022-09-07T03:45:17.745Z,1.53
2022-09-07T03:47:53.914Z,1.40
2022-09-07T03:50:22.427Z,1.55
2022-09-07T03:52:52.853Z,1.37
2022-09-07T03:55:21.199Z,1.30
2022-09-07T03:57:49.815Z,1.44
2022-09-07T04:00:17.656Z,1.32
2022-09-07T04:02:45.380Z,1.18
2022-09-07T04:05:12.670Z,1.11
2022-09-07T04:07:43.227Z,1.09
2022-09-07T04:10:13.595Z,1.06
2022-09-07T04:12:41.847Z,0.94
2022-09-07T04:15:11.476Z,1.12
2022-09-07T04:17:38.903Z,1.28
2022-09-07T04:20:07.772Z,1.22
2022-09-07T04:22:35.881Z,1.22
2022-09-07T04:25:08.881Z,1.24
2022-09-07T04:27:35.820Z,1.20
2022-09-07T04:30:04.848Z,1.16
2022-09-07T04:32:32.869Z,1.38
2022-09-07T04:35:01.536Z,1.45
2022-09-07T04:37:29.816Z,1.29
2022-09-07T04:42:31.709Z,1.20
2022-09-07T04:45:01.806Z,1.12
2022-09-07T04:47:29.176Z,1.06
2022-09-07T04:49:56.498Z,1.20
2022-09-07T04:52:23.769Z,1.46
2022-09-07T04:54:53.437Z,1.38
2022-09-07T04:57:20.506Z,1.57
2022-09-07T04:59:50.324Z,1.28
2022-09-07T05:02:18.740Z,1.35
2022-09-07T05:04:45.867Z,1.56
2022-09-07T05:07:13.004Z,1.67
2022-09-07T05:09:39.954Z,1.54
2022-09-07T05:12:07.907Z,1.40
2022-09-07T05:14:35.570Z,1.46
2022-09-07T05:17:05.795Z,1.30
2022-09-07T05:19:32.677Z,1.20
2022-09-07T05:22:00.195Z,1.27
2022-09-07T05:24:27.672Z,1.34
2022-09-07T05:27:00.314Z,1.33
2022-09-07T05:32:22.380Z,1.36
2022-09-07T05:34:55.553Z,1.32
2022-09-07T05:37:23.658Z,1.54
2022-09-07T05:39:53.005Z,1.67
2022-09-07T05:42:22.053Z,1.52
2022-09-07T05:44:49.342Z,1.39
2022-09-07T05:47:20.735Z,1.28
2022-09-07T05:49:48.373Z,1.33
2022-09-07T05:52:18.199Z,1.30
2022-09-07T05:54:49.061Z,1.43
2022-09-07T05:57:17.099Z,1.12
2022-09-07T05:59:44.762Z,1.05
2022-09-07T06:02:14.959Z,1.13
2022-09-07T06:04:43.387Z,1.17
2022-09-07T06:07:28.520Z,1.42
2022-09-07T06:12:49.223Z,1.53
2022-09-07T06:15:16.754Z,1.53
2022-09-07T06:17:44.772Z,1.51
2022-09-07T06:20:15.898Z,1.56
2022-09-07T06:22:44.910Z,1.60
2022-09-07T06:25:12.239Z,1.48
2022-09-07T06:27:41.947Z,1.62
2022-09-07T06:30:11.001Z,1.63
2022-09-07T06:35:15.709Z,1.41
2022-09-07T06:37:43.254Z,1.49
2022-09-07T06:40:11.471Z,1.38
2022-09-07T06:42:41.717Z,1.33
2022-09-07T06:45:10.001Z,1.23
2022-09-07T06:47:37.191Z,1.16
2022-09-07T06:50:06.614Z,1.04
2022-09-07T06:57:55.575Z,0.95
2022-09-07T07:00:25.991Z,1.11
2022-09-07T07:02:53.316Z,1.09
2022-09-07T07:05:21.424Z,1.07
2022-09-07T07:07:49.963Z,1.05
2022-09-07T07:10:24.563Z,1.07
2022-09-07T07:12:52.663Z,1.26
2022-09-07T07:15:21.774Z,1.00
2022-09-07T07:17:58.022Z,1.08
2022-09-07T07:20:30.394Z,0.86
2022-09-07T07:23:01.044Z,0.79
2022-09-07T07:25:29.317Z,0.86
2022-09-07T07:30:45.675Z,1.05
2022-09-07T07:33:12.884Z,1.14
2022-09-07T07:35:42.705Z,0.85
2022-09-07T07:43:46.738Z,0.80
2022-09-07T07:46:16.331Z,0.71
2022-09-07T07:48:47.974Z,0.69
2022-09-07T07:51:15.956Z,0.60
2022-09-07T07:53:48.465Z,0.60
2022-09-07T07:56:20.995Z,0.55
2022-09-07T07:58:52.470Z,0.64
2022-09-07T08:01:21.629Z,0.73
2022-09-07T08:03:49.724Z,0.70
2022-09-07T08:06:20.078Z,0.70
2022-09-07T08:08:56.138Z,0.76
2022-09-07T08:11:25.087Z,0.74
2022-09-07T08:13:56.137Z,0.76
2022-09-07T08:16:23.543Z,0.72
2022-09-07T08:18:53.056Z,0.75
2022-09-07T08:21:21.539Z,0.64
2022-09-07T08:23:50.735Z,0.61
2022-09-07T08:26:17.608Z,0.59
2022-09-07T08:28:46.288Z,0.57
2022-09-07T08:31:15.640Z,0.74
2022-09-07T08:33:43.355Z,0.62
2022-09-07T08:36:13.994Z,0.57
2022-09-07T08:38:42.759Z,0.51
2022-09-07T08:41:43.458Z,0.56
2022-09-07T08:44:19.159Z,0.58
2022-09-07T08:46:50.009Z,0.59
2022-09-07T08:49:23.582Z,0.49
2022-09-07T08:51:58.313Z,0.47
2022-09-07T08:54:29.828Z,0.42
2022-09-07T09:00:01.885Z,0.60
2022-09-07T09:02:32.548Z,0.48
2022-09-07T09:05:22.792Z,0.43
2022-09-07T09:08:00.432Z,0.41
2022-09-07T09:10:38.277Z,0.49
2022-09-07T09:13:17.633Z,0.40
2022-09-07T09:15:56.006Z,0.45
2022-09-07T09:18:42.632Z,0.43
2022-09-07T09:21:14.740Z,0.87
2022-09-07T09:23:46.915Z,0.60
2022-09-07T09:26:20.010Z,0.46
2022-09-07T09:28:47.367Z,0.41
2022-09-07T09:31:19.210Z,0.55
2022-09-07T09:34:12.040Z,0.48
2022-09-07T09:36:47.871Z,0.42
2022-09-07T09:39:32.466Z,0.37
2022-09-07T09:42:16.829Z,0.65
2022-09-07T09:44:44.514Z,0.49
2022-09-07T09:47:48.403Z,0.40
2022-09-07T09:53:25.439Z,0.49
2022-09-07T09:55:54.108Z,0.45
2022-09-07T10:01:29.051Z,0.39
2022-09-07T10:04:20.321Z,0.41
2022-09-07T10:06:51.277Z,0.45
2022-09-07T10:09:22.201Z,0.56
2022-09-07T10:12:10.324Z,0.48
2022-09-07T10:14:45.070Z,0.59
2022-09-07T10:17:15.593Z,0.60
2022-09-07T10:19:44.059Z,0.49
2022-09-07T10:22:33.296Z,0.61
2022-09-07T10:25:01.273Z,0.62
2022-09-07T10:27:34.713Z,0.51
2022-09-07T10:30:07.058Z,0.49
2022-09-07T10:32:46.573Z,0.45
2022-09-07T10:35:27.369Z,0.43
2022-09-07T10:38:11.455Z,0.42
2022-09-07T10:40:42.931Z,0.46
2022-09-07T10:43:21.842Z,0.70
2022-09-07T10:46:02.457Z,0.51
2022-09-07T10:48:36.500Z,0.41
2022-09-07T10:51:14.460Z,0.36
2022-09-07T10:53:46.747Z,0.37
2022-09-07T10:56:19.670Z,0.35
2022-09-07T10:59:01.681Z,0.32
2022-09-07T11:01:42.366Z,0.36
2022-09-07T11:04:38.443Z,0.33
2022-09-07T11:07:27.914Z,0.42
2022-09-07T11:09:59.772Z,0.36
2022-09-07T11:12:31.764Z,0.38
2022-09-07T11:15:15.844Z,0.40
2022-09-07T11:17:52.574Z,0.45
2022-09-07T11:20:28.673Z,0.45
2022-09-07T11:23:04.365Z,0.43
2022-09-07T11:25:40.449Z,0.47
2022-09-07T11:28:16.365Z,0.47
2022-09-07T11:30:49.952Z,0.48
2022-09-07T11:33:22.563Z,0.51
2022-09-07T11:35:56.598Z,0.50
2022-09-07T11:38:30.924Z,0.46
2022-09-07T11:41:12.718Z,0.48
2022-09-07T11:43:48.153Z,0.43
2022-09-07T11:46:26.432Z,0.61
2022-09-07T11:48:55.833Z,0.68
2022-09-07T11:51:29.271Z,0.49
2022-09-07T11:54:05.419Z,0.47
2022-09-07T11:56:38.582Z,0.42
2022-09-07T11:59:36.201Z,0.49
2022-09-07T12:02:28.590Z,0.40
2022-09-07T12:05:21.720Z,0.35
2022-09-07T12:08:04.010Z,0.38
2022-09-07T12:10:57.501Z,0.31
2022-09-07T12:14:02.139Z,0.51
2022-09-07T12:19:22.588Z,0.46
2022-09-07T12:21:59.717Z,0.42
2022-09-07T12:24:40.521Z,0.41
2022-09-07T12:27:32.172Z,0.33
2022-09-07T12:30:32.735Z,0.36
2022-09-07T12:33:18.514Z,0.49
2022-09-07T12:35:45.701Z,0.45
2022-09-07T12:38:58.559Z,0.46
2022-09-07T12:41:41.489Z,0.39
2022-09-07T12:44:16.273Z,0.37
2022-09-07T12:46:53.295Z,0.38
2022-09-07T12:49:45.169Z,0.38
2022-09-07T12:52:51.912Z,0.33
2022-09-07T12:58:50.836Z,0.46
2022-09-07T13:01:45.658Z,0.48
2022-09-07T13:04:52.790Z,0.54
2022-09-07T13:07:47.753Z,0.53
2022-09-07T13:10:28.393Z,0.52
2022-09-07T13:13:05.225Z,0.73
2022-09-07T13:15:40.601Z,0.63
2022-09-07T13:18:26.917Z,0.60
2022-09-07T13:21:38.003Z,0.60
2022-09-07T13:27:31.946Z,0.52
2022-09-07T13:30:19.682Z,0.63
2022-09-07T13:35:36.445Z,0.59
2022-09-07T13:38:04.837Z,0.55
2022-09-07T13:40:38.434Z,0.66
2022-09-07T13:43:15.872Z,0.54
2022-09-07T13:46:01.798Z,0.65
2022-09-07T13:48:34.875Z,0.53
2022-09-07T13:51:09.507Z,0.46
2022-09-07T13:53:48.535Z,0.44
2022-09-07T13:56:33.606Z,0.53
2022-09-07T13:59:21.949Z,0.52
2022-09-07T14:01:51.654Z,0.56
2022-09-07T14:04:30.263Z,0.53
2022-09-07T14:07:03.823Z,0.56
2022-09-07T14:09:36.145Z,0.68
2022-09-07T14:12:13.685Z,0.56
2022-09-07T14:14:41.518Z,0.79
2022-09-07T14:17:16.852Z,0.79
2022-09-07T14:19:50.330Z,0.94
2022-09-07T14:22:20.660Z,1.01
2022-09-07T14:24:51.872Z,1.01
2022-09-07T14:27:22.064Z,0.79
2022-09-07T14:29:49.141Z,0.74
2022-09-07T14:32:19.109Z,0.81
2022-09-07T14:34:48.734Z,0.77
2022-09-07T14:37:21.217Z,0.92
2022-09-07T14:39:55.759Z,1.29
2022-09-07T14:42:24.347Z,1.97
2022-09-07T14:45:19.231Z,1.70
2022-09-07T14:47:46.937Z,1.29
2022-09-07T14:50:20.540Z,1.38
2022-09-07T14:55:43.300Z,1.45
2022-09-07T14:58:25.714Z,1.13
2022-09-07T15:03:58.623Z,1.12
2022-09-07T15:07:02.940Z,1.08
2022-09-07T15:09:37.895Z,1.25
2022-09-07T15:12:18.188Z,1.23
2022-09-07T15:14:45.393Z,0.97
2022-09-07T15:20:31.227Z,1.80
2022-09-07T15:22:58.546Z,1.27
2022-09-07T15:25:27.171Z,1.11
2022-09-07T15:27:54.301Z,0.91
2022-09-07T15:30:21.119Z,0.76
2022-09-07T15:32:49.317Z,0.70
2022-09-07T15:35:18.776Z,0.66
2022-09-07T15:38:02.406Z,0.93
2022-09-07T15:41:03.906Z,0.80
2022-09-07T15:43:29.406Z,0.75
2022-09-07T15:45:56.234Z,0.85
2022-09-07T15:48:25.929Z,0.69
2022-09-07T15:51:02.005Z,0.65
2022-09-07T15:56:28.833Z,0.60
2022-09-07T15:58:58.718Z,0.67
2022-09-07T16:04:15.024Z,0.64
2022-09-07T16:06:47.845Z,0.80
2022-09-07T16:09:21.765Z,0.66
2022-09-07T16:11:50.807Z,0.59
2022-09-07T16:14:21.387Z,0.59
2022-09-07T16:19:36.205Z,0.57
2022-09-07T16:22:03.126Z,0.72
2022-09-07T16:24:33.420Z,0.98
2022-09-07T16:27:02.575Z,0.80
2022-09-07T16:29:31.093Z,1.04
2022-09-07T16:34:55.265Z,0.74
2022-09-07T16:37:22.756Z,0.89
2022-09-07T16:39:58.312Z,0.79
2022-09-07T16:42:31.982Z,0.73
2022-09-07T16:47:51.635Z,0.88
2022-09-07T16:50:19.713Z,0.82
2022-09-07T16:52:47.419Z,1.10
2022-09-07T16:55:14.501Z,0.91
2022-09-07T17:00:34.517Z,0.89
2022-09-07T17:03:01.269Z,0.85
2022-09-07T17:05:31.577Z,0.82
2022-09-07T17:07:59.828Z,0.95
2022-09-07T17:10:27.210Z,0.94
2022-09-07T17:12:56.193Z,1.02
2022-09-07T17:15:25.433Z,0.90
2022-09-07T17:17:52.839Z,1.09
2022-09-07T17:20:21.165Z,1.09
2022-09-07T17:22:48.364Z,1.09
2022-09-07T17:25:19.405Z,1.01
2022-09-07T17:27:46.855Z,1.35
2022-09-07T17:30:17.707Z,1.32
2022-09-07T17:32:45.945Z,1.37
2022-09-07T17:35:12.725Z,1.55
2022-09-07T17:37:40.575Z,1.76
2022-09-07T17:40:09.430Z,1.58
2022-09-07T17:45:37.223Z,1.87
2022-09-07T17:48:14.506Z,1.67
2022-09-07T17:50:42.483Z,1.47
2022-09-07T17:53:10.679Z,1.51
2022-09-07T17:55:38.493Z,1.31
2022-09-07T17:58:05.474Z,1.56
2022-09-07T18:00:35.070Z,1.49
2022-09-07T18:03:08.737Z,1.41
2022-09-07T18:05:35.835Z,1.49
2022-09-07T18:08:05.133Z,1.55
2022-09-07T18:11:44.914Z,1.30
2022-09-07T18:13:33.578Z,1.09
2022-09-07T18:16:10.353Z,1.66
2022-09-07T18:18:37.462Z,1.48
2022-09-07T18:21:11.300Z,1.38
2022-09-07T18:26:04.976Z,1.37
2022-09-07T18:31:28.570Z,1.18
2022-09-07T18:33:57.175Z,1.19
2022-09-07T18:36:25.956Z,1.24
2022-09-07T18:38:54.892Z,1.32
2022-09-07T18:41:21.945Z,1.17
2022-09-07T18:43:50.026Z,1.12
2022-09-07T18:46:23.211Z,1.36
2022-09-07T18:48:50.680Z,1.47
2022-09-07T18:51:17.991Z,1.56
2022-09-07T18:53:45.158Z,1.42
2022-09-07T18:56:14.551Z,1.49
2022-09-07T18:58:41.412Z,1.45
2022-09-07T19:01:10.080Z,1.45
2022-09-07T19:03:55.281Z,1.53
2022-09-07T19:06:25.247Z,1.59
2022-09-07T19:08:52.067Z,1.79
2022-09-07T19:11:20.863Z,2.44
2022-09-07T19:13:47.715Z,1.95
2022-09-07T19:16:19.726Z,1.72
2022-09-07T19:18:48.460Z,1.54
2022-09-07T19:21:21.699Z,1.54
2022-09-07T19:23:53.853Z,1.63
2022-09-07T19:26:30.270Z,1.68
2022-09-07T19:29:02.039Z,1.61
2022-09-07T19:32:00.010Z,1.58
2022-09-07T19:34:29.783Z,1.54
2022-09-07T19:37:06.940Z,1.51
2022-09-07T19:39:35.505Z,1.52
2022-09-07T19:42:04.862Z,1.57
2022-09-07T19:44:37.747Z,1.54
2022-09-07T19:47:05.845Z,1.54
2022-09-07T19:49:33.326Z,1.60
2022-09-07T19:52:00.262Z,1.50
2022-09-07T19:54:28.643Z,1.45
2022-09-07T19:56:55.747Z,1.53
2022-09-07T19:59:23.132Z,1.56
2022-09-07T20:01:49.967Z,1.64
2022-09-07T20:04:20.025Z,1.54
2022-09-07T20:06:48.671Z,1.25
2022-09-07T20:09:16.700Z,1.23
2022-09-07T20:11:46.706Z,2.00
2022-09-07T20:14:15.705Z,1.68
2022-09-07T20:16:43.138Z,1.81
2022-09-07T20:19:12.066Z,1.57
2022-09-07T20:21:38.957Z,1.39
2022-09-07T20:24:06.073Z,1.33
2022-09-07T20:26:32.860Z,1.85
2022-09-07T20:29:23.711Z,1.92
2022-09-07T20:31:49.373Z,1.98
2022-09-07T20:34:16.492Z,1.71
2022-09-07T20:36:43.634Z,1.46
2022-09-07T20:39:15.208Z,1.51
2022-09-07T20:41:47.840Z,1.65
2022-09-07T20:44:16.547Z,1.48
2022-09-07T20:46:44.691Z,1.54
2022-09-07T20:49:11.785Z,1.49
2022-09-07T20:51:40.965Z,1.42
2022-09-07T20:54:08.137Z,1.59
2022-09-07T20:56:35.239Z,1.63
2022-09-07T20:59:04.014Z,1.61
2022-09-07T21:01:32.880Z,1.87
2022-09-07T21:04:01.550Z,1.79
2022-09-07T21:06:29.603Z,1.70
2022-09-07T21:08:57.096Z,1.60
2022-09-07T21:11:27.595Z,1.66
2022-09-07T21:13:56.134Z,1.66
2022-09-07T21:16:24.350Z,1.83
2022-09-07T21:18:55.248Z,1.78
2022-09-07T21:21:22.517Z,1.65
2022-09-07T21:23:53.877Z,1.60
2022-09-07T21:26:21.066Z,1.47
2022-09-07T21:28:56.719Z,1.37
2022-09-07T21:31:24.051Z,1.39
2022-09-07T21:33:55.875Z,1.35
2022-09-07T21:36:23.497Z,1.57
2022-09-07T21:38:55.728Z,1.69
2022-09-07T21:41:24.752Z,1.88
2022-09-07T21:43:54.697Z,1.59
2022-09-07T21:46:21.449Z,1.83
2022-09-07T21:48:49.588Z,1.84
2022-09-07T21:51:18.267Z,1.90
2022-09-07T21:53:46.992Z,1.74
2022-09-07T21:56:14.218Z,1.70
2022-09-07T21:58:41.481Z,1.61
2022-09-07T22:01:10.124Z,1.68
2022-09-07T22:03:38.930Z,2.07
2022-09-07T22:06:05.966Z,2.29
2022-09-07T22:08:37.750Z,1.94
2022-09-07T22:11:07.223Z,2.09
2022-09-07T22:13:34.617Z,1.98
2022-09-07T22:16:02.300Z,1.87
2022-09-07T22:18:29.577Z,1.83
2022-09-07T22:21:04.784Z,1.96
2022-09-07T22:23:32.425Z,1.85
2022-09-07T22:26:00.901Z,1.84
2022-09-07T22:28:29.698Z,1.82
2022-09-07T22:31:07.462Z,1.65
2022-09-07T22:33:34.468Z,1.97
2022-09-07T22:36:15.320Z,1.71
2022-09-07T22:38:43.043Z,1.68
2022-09-07T22:41:15.250Z,1.77
2022-09-07T22:43:42.990Z,1.69
2022-09-07T22:46:10.387Z,1.59
2022-09-07T22:48:38.251Z,1.65
2022-09-07T22:51:05.895Z,1.61
2022-09-07T22:53:34.686Z,1.58
2022-09-07T22:56:08.008Z,1.49
2022-09-07T22:58:38.069Z,1.50
2022-09-07T23:01:06.371Z,1.58
2022-09-07T23:03:35.167Z,1.78
2022-09-07T23:06:03.274Z,1.56
2022-09-07T23:08:30.972Z,1.97
2022-09-07T23:11:02.746Z,1.90
2022-09-07T23:13:29.583Z,1.77
2022-09-07T23:16:02.944Z,1.75
2022-09-07T23:18:30.318Z,1.85
2022-09-07T23:21:00.403Z,1.88
2022-09-07T23:23:29.916Z,1.69
2022-09-07T23:25:56.975Z,1.91
2022-09-07T23:28:32.277Z,1.80
2022-09-07T23:31:01.722Z,1.96
2022-09-07T23:33:28.767Z,1.56
2022-09-07T23:35:58.349Z,1.87
2022-09-07T23:38:25.703Z,2.31
2022-09-07T23:40:53.439Z,2.15
2022-09-07T23:43:20.534Z,2.11
2022-09-07T23:45:47.302Z,2.06
2022-09-07T23:48:18.272Z,1.97
2022-09-07T23:50:45.734Z,1.90
2022-09-07T23:53:13.280Z,1.82
2022-09-07T23:55:41.972Z,1.73
2022-09-07T23:58:10.567Z,1.49
